Terminal Aerodrome Forecast
Issued by NWS

Home | Current Version | Previous Version | Text Only | Print | Product List | Glossary On
Versions: 1 2 3 4 5 6 7 8 9 10 11 12 13 14 15
000
FTUS43 KICT 142345
TAFRSL
TAF
KRSL 142345Z 1500/1524 15009KT P6SM SCT200
     FM150800 17004KT P6SM FEW250
     FM151600 16009KT P6SM SCT200
     FM151900 16013G21KT P6SM FEW060 BKN200=

USA.gov is the U.S. government's official web portal to all federal, state and local government web resources and services.